createdAt,value
2018-02-08T00:00:47.280Z,55.53
2018-02-08T00:03:14.940Z,50.47
2018-02-08T00:05:42.589Z,56.90
2018-02-08T00:08:10.294Z,51.17
2018-02-08T00:10:37.936Z,54.43
2018-02-08T00:13:05.587Z,49.30
2018-02-08T00:15:33.705Z,58.73
2018-02-08T00:18:01.372Z,58.53
2018-02-08T00:20:29.832Z,57.47
2018-02-08T00:22:57.541Z,57.77
2018-02-08T00:25:25.181Z,55.17
2018-02-08T00:27:52.854Z,54.33
2018-02-08T00:30:20.556Z,55.70
2018-02-08T00:32:48.495Z,57.97
2018-02-08T00:35:16.146Z,60.80
2018-02-08T00:37:43.843Z,58.77
2018-02-08T00:40:11.508Z,55.73
2018-02-08T00:42:39.174Z,51.50
2018-02-08T00:45:07.369Z,56.73
2018-02-08T00:47:35.007Z,48.03
2018-02-08T00:50:02.657Z,56.03
2018-02-08T00:52:30.366Z,56.00
2018-02-08T00:57:37.156Z,57.55
2018-02-08T01:00:04.785Z,48.03
2018-02-08T01:02:32.419Z,53.73
2018-02-08T01:05:01.844Z,53.63
2018-02-08T01:07:29.472Z,49.63
2018-02-08T01:09:57.058Z,54.17
2018-02-08T01:12:25.701Z,51.93
2018-02-08T01:14:53.749Z,53.13
2018-02-08T01:17:21.401Z,57.20
2018-02-08T01:19:49.102Z,56.50
2018-02-08T01:22:17.166Z,52.43
2018-02-08T01:24:44.813Z,50.93
2018-02-08T01:27:12.527Z,54.47
2018-02-08T01:29:40.187Z,52.50
2018-02-08T01:32:07.831Z,57.43
2018-02-08T01:34:35.528Z,50.77
2018-02-08T01:37:04.020Z,52.67
2018-02-08T01:39:31.670Z,48.30
2018-02-08T01:41:59.430Z,52.47
2018-02-08T01:44:27.926Z,48.07
2018-02-08T01:46:55.541Z,46.63
2018-02-08T01:49:35.142Z,49.70
2018-02-08T01:52:02.801Z,51.03
2018-02-08T01:54:30.447Z,50.03
2018-02-08T01:56:58.152Z,51.53
2018-02-08T01:59:25.796Z,44.43
2018-02-08T02:01:53.441Z,51.33
2018-02-08T02:04:21.134Z,50.00
2018-02-08T02:06:48.769Z,50.73
2018-02-08T02:09:16.422Z,51.80
2018-02-08T02:11:44.156Z,55.00
2018-02-08T02:14:11.831Z,52.13
2018-02-08T02:16:39.455Z,49.50
2018-02-08T02:21:46.264Z,55.22
2018-02-08T02:24:13.959Z,50.97
2018-02-08T02:26:41.603Z,48.50
2018-02-08T02:29:09.246Z,49.33
2018-02-08T02:31:36.948Z,56.00
2018-02-08T02:34:04.596Z,51.57
2018-02-08T02:36:32.240Z,56.67
2018-02-08T02:39:01.057Z,51.07
2018-02-08T02:41:28.696Z,49.97
2018-02-08T02:43:56.381Z,51.10
2018-02-08T02:46:24.046Z,47.40
2018-02-08T02:48:51.917Z,43.37
2018-02-08T02:51:19.414Z,47.87
2018-02-08T02:53:47.120Z,56.53
2018-02-08T02:56:14.757Z,54.13
2018-02-08T02:58:42.405Z,52.93
2018-02-08T03:01:10.125Z,46.70
2018-02-08T03:03:37.752Z,49.07
2018-02-08T03:06:05.397Z,52.03
2018-02-08T03:08:33.106Z,51.23
2018-02-08T03:11:00.759Z,46.90
2018-02-08T03:13:28.938Z,46.87
2018-02-08T03:15:56.641Z,55.43
2018-02-08T03:18:24.285Z,47.23
2018-02-08T03:20:51.932Z,54.27
2018-02-08T03:23:19.643Z,48.77
2018-02-08T03:25:47.295Z,52.87
2018-02-08T03:28:16.687Z,49.80
2018-02-08T03:33:26.874Z,56.22
2018-02-08T03:35:55.318Z,45.87
2018-02-08T03:38:22.968Z,52.67
2018-02-08T03:40:50.599Z,49.60
2018-02-08T03:43:19.052Z,50.40
2018-02-08T03:45:46.694Z,52.33
2018-02-08T03:48:14.340Z,45.23
2018-02-08T03:50:43.000Z,50.63
2018-02-08T03:53:10.608Z,45.83
2018-02-08T03:55:38.253Z,49.50
2018-02-08T03:58:05.966Z,50.00
2018-02-08T04:00:33.616Z,54.03
2018-02-08T04:03:01.261Z,46.37
2018-02-08T04:05:28.977Z,53.73
2018-02-08T04:07:57.381Z,49.33
2018-02-08T04:10:25.058Z,45.03
2018-02-08T04:12:53.602Z,49.17
2018-02-08T04:15:22.010Z,46.00
2018-02-08T04:17:49.712Z,46.47
2018-02-08T04:20:17.968Z,50.70
2018-02-08T04:22:46.908Z,47.40
2018-02-08T04:25:14.543Z,50.17
2018-02-08T04:27:42.256Z,47.33
2018-02-08T04:30:09.907Z,49.80
2018-02-08T04:32:37.547Z,48.27
2018-02-08T04:35:05.366Z,48.30
2018-02-08T04:37:33.297Z,52.83
2018-02-08T04:40:12.732Z,47.80
2018-02-08T04:42:52.256Z,48.10
2018-02-08T04:45:25.876Z,52.23
2018-02-08T04:50:33.962Z,55.03
2018-02-08T04:53:02.565Z,47.00
2018-02-08T04:55:31.241Z,51.27
2018-02-08T04:57:58.961Z,47.73
2018-02-08T05:00:26.615Z,48.30
2018-02-08T05:05:40.437Z,55.72
2018-02-08T05:08:08.150Z,51.03
2018-02-08T05:10:35.806Z,49.93
2018-02-08T05:13:03.444Z,49.03
2018-02-08T05:15:31.195Z,49.53
2018-02-08T05:17:58.832Z,55.00
2018-02-08T05:20:26.477Z,50.07
2018-02-08T05:22:54.216Z,49.07
2018-02-08T05:25:21.877Z,53.47
2018-02-08T05:27:49.504Z,49.70
2018-02-08T05:30:17.212Z,46.33
2018-02-08T05:32:44.893Z,49.93
2018-02-08T05:35:12.576Z,51.13
2018-02-08T05:37:40.306Z,47.90
2018-02-08T05:40:07.953Z,47.07
2018-02-08T05:42:35.628Z,50.80
2018-02-08T05:45:03.325Z,47.80
2018-02-08T05:47:31.004Z,48.50
2018-02-08T05:49:58.672Z,46.20
2018-02-08T05:52:26.392Z,48.53
2018-02-08T05:54:54.042Z,46.30
2018-02-08T05:57:21.684Z,46.33
2018-02-08T05:59:49.390Z,47.30
2018-02-08T06:02:17.357Z,46.33
2018-02-08T06:04:45.068Z,50.50
2018-02-08T06:07:12.772Z,52.40
2018-02-08T06:09:41.067Z,45.17
2018-02-08T06:14:41.482Z,50.20
2018-02-08T06:17:09.119Z,46.60
2018-02-08T06:19:37.171Z,53.60
2018-02-08T06:22:05.817Z,47.17
2018-02-08T06:24:33.465Z,52.60
2018-02-08T06:29:40.273Z,52.28
2018-02-08T06:32:07.921Z,48.73
2018-02-08T06:34:35.578Z,48.57
2018-02-08T06:37:04.228Z,50.23
2018-02-08T06:39:31.876Z,46.13
2018-02-08T06:41:59.516Z,52.53
2018-02-08T06:44:27.229Z,48.57
2018-02-08T06:46:54.885Z,48.87
2018-02-08T06:49:22.522Z,53.67
2018-02-08T06:51:50.241Z,48.47
2018-02-08T06:54:17.884Z,47.33
2018-02-08T06:56:46.149Z,52.70
2018-02-08T06:59:13.853Z,51.57
2018-02-08T07:01:42.329Z,56.37
2018-02-08T07:04:12.371Z,58.33
2018-02-08T07:06:40.046Z,48.70
2018-02-08T07:09:07.675Z,49.53
2018-02-08T07:11:35.365Z,50.40
2018-02-08T07:14:03.064Z,55.50
2018-02-08T07:16:30.708Z,51.60
2018-02-08T07:18:59.207Z,55.13
2018-02-08T07:21:26.913Z,52.93
2018-02-08T07:23:54.558Z,54.07
2018-02-08T07:26:22.203Z,58.00
2018-02-08T07:28:49.896Z,59.57
2018-02-08T07:31:17.537Z,52.70
2018-02-08T07:33:45.215Z,55.33
2018-02-08T07:36:14.116Z,55.87
2018-02-08T07:38:41.728Z,51.87
2018-02-08T07:41:09.895Z,54.93
2018-02-08T07:43:37.535Z,56.70
2018-02-08T07:46:05.535Z,56.67
2018-02-08T07:48:33.185Z,54.43
2018-02-08T07:51:00.881Z,60.30
2018-02-08T07:53:28.526Z,54.13
2018-02-08T07:58:35.602Z,60.75
2018-02-08T08:01:03.265Z,64.20
2018-02-08T08:03:30.896Z,64.30
2018-02-08T08:05:59.553Z,57.00
2018-02-08T08:08:27.196Z,58.67
2018-02-08T08:10:54.858Z,70.07
2018-02-08T08:13:24.041Z,60.87
2018-02-08T08:15:52.077Z,58.13
2018-02-08T08:18:25.645Z,62.40
2018-02-08T08:20:53.292Z,63.73
2018-02-08T08:23:22.838Z,59.03
2018-02-08T08:25:48.645Z,56.93
2018-02-08T08:28:16.324Z,61.07
2018-02-08T08:30:43.969Z,60.77
2018-02-08T08:33:11.677Z,61.50
2018-02-08T08:35:39.329Z,59.37
2018-02-08T08:38:06.981Z,65.43
2018-02-08T08:40:34.721Z,61.03
2018-02-08T08:43:03.290Z,59.00
2018-02-08T08:45:30.932Z,65.17
2018-02-08T08:47:58.641Z,64.17
2018-02-08T08:50:26.291Z,62.37
2018-02-08T08:52:53.941Z,53.03
2018-02-08T08:55:21.644Z,62.67
2018-02-08T08:57:49.290Z,61.10
2018-02-08T09:00:16.959Z,57.50
2018-02-08T09:02:44.660Z,60.13
2018-02-08T09:05:12.321Z,59.17
2018-02-08T09:07:40.528Z,63.57
2018-02-08T09:10:08.238Z,58.10
2018-02-08T09:12:35.905Z,60.00
2018-02-08T09:15:03.551Z,57.07
2018-02-08T09:17:31.281Z,59.93
2018-02-08T09:19:58.933Z,56.00
2018-02-08T09:25:06.745Z,61.35
2018-02-08T09:27:34.393Z,58.63
2018-02-08T09:30:02.028Z,52.60
2018-02-08T09:32:29.744Z,55.23
2018-02-08T09:34:57.425Z,61.67
2018-02-08T09:37:25.078Z,57.67
2018-02-08T09:39:52.793Z,51.80
2018-02-08T09:42:20.433Z,54.03
2018-02-08T09:44:48.081Z,59.00
2018-02-08T09:49:56.283Z,64.87
2018-02-08T09:55:05.116Z,62.83
2018-02-08T09:57:32.816Z,58.33
2018-02-08T10:00:00.462Z,54.00
2018-02-08T10:02:28.101Z,56.23
2018-02-08T10:04:55.812Z,57.93
2018-02-08T10:07:23.555Z,61.03
2018-02-08T10:09:52.047Z,62.53
2018-02-08T10:12:19.708Z,56.27
2018-02-08T10:14:47.400Z,52.93
2018-02-08T10:17:15.055Z,55.87
2018-02-08T10:19:42.766Z,57.93
2018-02-08T10:22:10.396Z,59.33
2018-02-08T10:24:38.242Z,59.17
2018-02-08T10:27:05.985Z,51.33
2018-02-08T10:29:33.698Z,58.93
2018-02-08T10:32:01.341Z,58.50
2018-02-08T10:34:29.051Z,57.03
2018-02-08T10:36:57.716Z,58.17
2018-02-08T10:39:25.353Z,58.60
2018-02-08T10:41:53.057Z,54.60
2018-02-08T10:44:20.693Z,54.53
2018-02-08T10:46:48.786Z,56.37
2018-02-08T10:49:16.315Z,61.80
2018-02-08T10:51:44.401Z,58.97
2018-02-08T10:54:12.050Z,51.77
2018-02-08T10:56:39.756Z,55.93
2018-02-08T10:59:07.559Z,54.40
2018-02-08T11:01:35.196Z,52.37
2018-02-08T11:04:02.901Z,60.23
2018-02-08T11:06:30.537Z,56.17
2018-02-08T11:08:58.252Z,54.67
2018-02-08T11:11:25.950Z,52.10
2018-02-08T11:13:53.593Z,54.13
2018-02-08T11:16:21.493Z,55.50
2018-02-08T11:21:30.292Z,59.88
2018-02-08T11:23:58.033Z,51.00
2018-02-08T11:26:25.685Z,55.17
2018-02-08T11:28:53.319Z,59.77
2018-02-08T11:31:21.044Z,56.23
2018-02-08T11:33:49.573Z,60.20
2018-02-08T11:36:17.227Z,53.63
2018-02-08T11:38:44.921Z,60.20
2018-02-08T11:41:12.567Z,53.00
2018-02-08T11:43:40.213Z,62.87
2018-02-08T11:46:07.999Z,53.83
2018-02-08T11:48:35.642Z,50.63
2018-02-08T11:51:03.293Z,46.90
2018-02-08T11:53:31.013Z,44.63
2018-02-08T11:55:58.660Z,42.90
2018-02-08T11:58:26.292Z,46.97
2018-02-08T12:00:53.990Z,52.40
2018-02-08T12:03:21.627Z,50.67
2018-02-08T12:05:49.299Z,47.67
2018-02-08T12:08:17.008Z,48.60
2018-02-08T12:10:44.653Z,48.67
2018-02-08T12:13:12.293Z,48.00
2018-02-08T12:15:40.036Z,48.43
2018-02-08T12:18:07.732Z,53.67
2018-02-08T12:20:35.298Z,50.33
2018-02-08T12:23:02.988Z,48.70
2018-02-08T12:25:30.641Z,56.37
2018-02-08T12:27:58.296Z,56.80
2018-02-08T12:30:25.984Z,55.27
2018-02-08T12:32:53.629Z,53.33
2018-02-08T12:35:21.272Z,52.17
2018-02-08T12:37:49.613Z,50.97
2018-02-08T12:40:17.257Z,55.10
2018-02-08T12:42:44.885Z,53.17
2018-02-08T12:47:52.522Z,57.50
2018-02-08T12:50:21.200Z,52.73
2018-02-08T12:52:48.889Z,48.87
2018-02-08T12:55:16.538Z,52.93
2018-02-08T12:57:45.141Z,47.47
2018-02-08T13:00:12.804Z,49.07
2018-02-08T13:02:40.444Z,54.17
2018-02-08T13:05:08.989Z,59.03
2018-02-08T13:07:36.638Z,54.97
2018-02-08T13:10:04.278Z,51.70
2018-02-08T13:12:31.987Z,55.07
2018-02-08T13:14:59.658Z,56.27
2018-02-08T13:17:27.304Z,50.77
2018-02-08T13:19:54.999Z,53.43
2018-02-08T13:22:22.644Z,54.20
2018-02-08T13:24:50.289Z,52.87
2018-02-08T13:27:18.008Z,53.17
2018-02-08T13:29:45.749Z,57.10
2018-02-08T13:32:14.198Z,57.10
2018-02-08T13:34:41.937Z,59.30
2018-02-08T13:37:09.580Z,55.27
2018-02-08T13:39:38.069Z,54.73
2018-02-08T13:42:10.625Z,51.37
2018-02-08T13:44:38.266Z,61.27
2018-02-08T13:52:29.235Z,57.38
2018-02-08T14:03:02.395Z,59.90
2018-02-08T14:05:30.133Z,54.50
2018-02-08T14:07:57.809Z,51.47
2018-02-08T14:10:25.448Z,58.33
2018-02-08T14:12:53.170Z,57.60
2018-02-08T14:15:20.826Z,58.37
2018-02-08T14:17:48.472Z,54.40
2018-02-08T14:20:16.176Z,61.60
2018-02-08T14:22:43.844Z,59.27
2018-02-08T14:25:11.478Z,63.07
2018-02-08T14:27:39.195Z,51.47
2018-02-08T14:30:06.816Z,54.90
2018-02-08T14:32:34.464Z,57.00
2018-02-08T14:35:03.055Z,57.50
2018-02-08T14:37:30.709Z,61.03
2018-02-08T14:39:58.335Z,63.57
2018-02-08T14:42:26.025Z,57.43
2018-02-08T14:44:53.663Z,60.37
2018-02-08T14:47:21.298Z,56.77
2018-02-08T14:49:49.013Z,62.13
2018-02-08T14:52:16.925Z,60.87
2018-02-08T14:54:44.569Z,64.40
2018-02-08T14:57:12.266Z,59.97
2018-02-08T14:59:39.912Z,57.60
2018-02-08T15:02:07.558Z,62.60
2018-02-08T15:04:35.247Z,63.33
2018-02-08T15:07:02.891Z,59.80
2018-02-08T15:09:30.542Z,56.53
2018-02-08T15:11:59.223Z,57.83
2018-02-08T15:14:26.847Z,55.07
2018-02-08T15:16:54.488Z,56.20
2018-02-08T15:19:22.229Z,62.17
2018-02-08T15:21:53.578Z,63.07
2018-02-08T15:27:00.377Z,62.85
2018-02-08T15:29:28.010Z,56.37
2018-02-08T15:31:55.652Z,66.87
2018-02-08T15:37:04.640Z,66.43
2018-02-08T15:39:32.332Z,60.37
2018-02-08T15:42:00.830Z,60.87
2018-02-08T15:44:28.469Z,66.43
2018-02-08T15:46:56.167Z,64.73
2018-02-08T15:49:23.802Z,72.47
2018-02-08T15:51:51.463Z,69.77
2018-02-08T15:54:20.171Z,78.43
2018-02-08T15:56:47.806Z,69.90
2018-02-08T15:59:15.444Z,69.17
2018-02-08T16:01:43.153Z,73.67
2018-02-08T16:04:11.511Z,70.00
2018-02-08T16:06:39.152Z,74.53
2018-02-08T16:09:06.871Z,67.73
2018-02-08T16:11:34.517Z,68.27
2018-02-08T16:14:02.229Z,71.23
2018-02-08T16:16:29.930Z,71.83
2018-02-08T16:18:57.578Z,68.03
2018-02-08T16:21:25.221Z,68.30
2018-02-08T16:23:52.935Z,69.23
2018-02-08T16:26:20.572Z,70.73
2018-02-08T16:28:48.213Z,67.50
2018-02-08T16:31:16.749Z,74.93
2018-02-08T16:33:44.392Z,68.27
2018-02-08T16:36:12.078Z,75.03
2018-02-08T16:38:39.796Z,75.03
2018-02-08T16:41:07.442Z,78.50
2018-02-08T16:43:35.978Z,79.20
2018-02-08T16:46:03.680Z,74.23
2018-02-08T16:48:31.836Z,74.50
2018-02-08T16:51:00.654Z,77.03
2018-02-08T16:53:28.321Z,81.13
2018-02-08T16:55:55.960Z,73.80
2018-02-08T17:01:03.741Z,87.18
2018-02-08T17:03:31.766Z,88.87
2018-02-08T17:05:59.397Z,79.37
2018-02-08T17:08:27.096Z,86.20
2018-02-08T17:10:54.742Z,79.67
2018-02-08T17:13:22.377Z,85.60
2018-02-08T17:15:50.096Z,77.53
2018-02-08T17:18:18.196Z,87.00
2018-02-08T17:20:45.842Z,87.77
2018-02-08T17:23:13.544Z,90.63
2018-02-08T17:25:41.310Z,89.30
2018-02-08T17:28:08.947Z,91.57
2018-02-08T17:30:36.733Z,90.00
2018-02-08T17:33:04.390Z,94.57
2018-02-08T17:35:32.036Z,84.50
2018-02-08T17:37:59.728Z,86.33
2018-02-08T17:43:07.703Z,100.18
2018-02-08T17:45:35.349Z,85.63
2018-02-08T17:48:02.988Z,82.90
2018-02-08T17:50:30.689Z,90.73
2018-02-08T17:52:59.237Z,85.27
2018-02-08T17:55:26.881Z,82.60
2018-02-08T17:57:54.588Z,84.53
2018-02-08T18:00:22.247Z,85.30
2018-02-08T18:02:49.918Z,86.60
2018-02-08T18:05:17.629Z,90.00
2018-02-08T18:07:45.266Z,88.60
2018-02-08T18:10:12.927Z,90.87
2018-02-08T18:12:40.610Z,92.60
2018-02-08T18:15:08.296Z,89.07
2018-02-08T18:17:35.944Z,99.07
2018-02-08T18:22:35.426Z,91.67
2018-02-08T18:25:03.044Z,90.90
2018-02-08T18:27:30.748Z,88.77
2018-02-08T18:29:58.410Z,90.83
2018-02-08T18:32:27.334Z,100.70
2018-02-08T18:34:54.953Z,92.47
2018-02-08T18:37:23.430Z,89.97
2018-02-08T18:39:51.098Z,87.57
2018-02-08T18:42:18.776Z,86.80
2018-02-08T18:44:46.415Z,91.43
2018-02-08T18:47:14.916Z,85.83
2018-02-08T18:49:42.647Z,96.73
2018-02-08T18:52:10.794Z,89.33
2018-02-08T18:54:39.148Z,91.73
2018-02-08T18:57:06.818Z,93.27
2018-02-08T18:59:34.824Z,85.27
2018-02-08T19:04:41.955Z,100.35
2018-02-08T19:07:10.436Z,95.73
2018-02-08T19:09:38.952Z,93.10
2018-02-08T19:12:06.635Z,97.27
2018-02-08T19:14:34.378Z,97.07
2018-02-08T19:17:01.999Z,94.80
2018-02-08T19:19:29.695Z,98.23
2018-02-08T19:21:57.330Z,95.47
2018-02-08T19:24:24.990Z,94.47
2018-02-08T19:26:53.456Z,95.07
2018-02-08T19:29:21.090Z,93.03
2018-02-08T19:31:49.240Z,93.63
2018-02-08T19:34:16.933Z,90.53
2018-02-08T19:36:44.569Z,89.80
2018-02-08T19:39:12.302Z,91.23
2018-02-08T19:41:40.832Z,87.83
2018-02-08T19:44:08.469Z,87.70
2018-02-08T19:46:36.113Z,94.57
2018-02-08T19:49:03.888Z,81.97
2018-02-08T19:51:31.522Z,89.13
2018-02-08T19:53:59.223Z,97.43
2018-02-08T19:56:26.896Z,112.00
2018-02-08T19:58:55.752Z,99.90
2018-02-08T20:01:23.506Z,83.27
2018-02-08T20:03:51.880Z,94.73
2018-02-08T20:06:19.489Z,92.67
2018-02-08T20:08:47.160Z,87.33
2018-02-08T20:11:14.845Z,84.63
2018-02-08T20:13:43.346Z,86.87
2018-02-08T20:16:10.983Z,79.33
2018-02-08T20:18:38.706Z,88.87
2018-02-08T20:21:06.352Z,90.27
2018-02-08T20:23:34.011Z,90.37
2018-02-08T20:28:40.820Z,96.37
2018-02-08T20:33:49.587Z,98.53
2018-02-08T20:36:17.255Z,86.07
2018-02-08T20:41:27.914Z,95.28
2018-02-08T20:46:34.856Z,96.07
2018-02-08T20:49:02.505Z,90.70
2018-02-08T20:51:30.131Z,93.80
2018-02-08T20:53:57.845Z,87.37
2018-02-08T20:56:25.730Z,99.30
2018-02-08T20:58:53.743Z,87.97
2018-02-08T21:01:21.402Z,93.60
2018-02-08T21:03:49.263Z,89.10
2018-02-08T21:06:16.907Z,94.07
2018-02-08T21:08:44.617Z,82.57
2018-02-08T21:11:12.261Z,99.40
2018-02-08T21:13:39.915Z,99.83
2018-02-08T21:16:07.642Z,119.23
2018-02-08T21:18:35.923Z,112.27
2018-02-08T21:21:03.585Z,98.77
2018-02-08T21:23:31.289Z,103.43
2018-02-08T21:25:58.933Z,97.80
2018-02-08T21:28:26.582Z,95.27
2018-02-08T21:30:54.279Z,87.47
2018-02-08T21:33:21.918Z,98.37
2018-02-08T21:35:49.563Z,93.53
2018-02-08T21:38:17.280Z,91.73
2018-02-08T21:40:44.914Z,91.70
2018-02-08T21:43:12.554Z,92.43
2018-02-08T21:45:40.316Z,86.73
2018-02-08T21:48:07.933Z,87.03
2018-02-08T21:50:37.786Z,94.23
2018-02-08T21:53:05.334Z,96.73
2018-02-08T21:55:33.219Z,97.33
2018-02-08T21:58:00.637Z,90.17
2018-02-08T22:00:28.431Z,97.33
2018-02-08T22:02:56.260Z,106.83
2018-02-08T22:05:23.838Z,92.47
2018-02-08T22:10:30.666Z,107.03
2018-02-08T22:12:58.341Z,97.53
2018-02-08T22:15:25.981Z,96.90
2018-02-08T22:17:53.635Z,89.90
2018-02-08T22:20:21.325Z,95.20
2018-02-08T22:22:50.755Z,95.17
2018-02-08T22:28:00.310Z,96.43
2018-02-08T22:30:28.180Z,91.23
2018-02-08T22:32:55.835Z,91.63
2018-02-08T22:35:23.660Z,90.00
2018-02-08T22:37:51.306Z,83.80
2018-02-08T22:40:18.942Z,91.37
2018-02-08T22:42:46.698Z,81.43
2018-02-08T22:45:14.281Z,89.50
2018-02-08T22:47:41.918Z,83.10
2018-02-08T22:50:09.612Z,82.67
2018-02-08T22:52:37.246Z,83.20
2018-02-08T22:55:06.352Z,84.77
2018-02-08T22:57:34.092Z,81.63
2018-02-08T23:00:01.746Z,80.03
2018-02-08T23:02:29.388Z,89.07
2018-02-08T23:04:57.144Z,88.93
2018-02-08T23:07:28.023Z,92.10
2018-02-08T23:09:57.287Z,88.33
2018-02-08T23:12:25.312Z,70.83
2018-02-08T23:14:54.680Z,81.10
2018-02-08T23:17:22.289Z,79.57
2018-02-08T23:19:51.754Z,76.77
2018-02-08T23:22:19.380Z,83.50
2018-02-08T23:24:47.080Z,73.00
2018-02-08T23:27:14.731Z,68.37
2018-02-08T23:29:42.398Z,61.53
2018-02-08T23:32:10.132Z,63.07
2018-02-08T23:34:37.772Z,58.07
2018-02-08T23:39:37.490Z,62.00
2018-02-08T23:42:05.549Z,60.27
2018-02-08T23:44:33.193Z,57.33
2018-02-08T23:47:01.785Z,54.50
2018-02-08T23:49:29.426Z,55.30
2018-02-08T23:54:36.225Z,63.92
2018-02-08T23:57:05.959Z,58.40
2018-02-08T23:59:33.573Z,60.63
